sensor_id;sensor_type;location;lat;lon;timestamp;pressure;altitude;pressure_sealevel;temperature;humidity
59443;BME280;45247;47.466;19.004;2022-12-17T00:00:19;99306.09;;;1.16;100.00
59443;BME280;45247;47.466;19.004;2022-12-17T00:03:08;99299.13;;;1.16;100.00
59443;BME280;45247;47.466;19.004;2022-12-17T00:05:57;99314.69;;;1.18;100.00
59443;BME280;45247;47.466;19.004;2022-12-17T00:08:43;99301.47;;;1.24;100.00
59443;BME280;45247;47.466;19.004;2022-12-17T00:11:29;99297.88;;;1.28;100.00
59443;BME280;45247;47.466;19.004;2022-12-17T00:14:14;99296.47;;;1.18;100.00
59443;BME280;45247;47.466;19.004;2022-12-17T00:17:01;99291.38;;;1.15;100.00
59443;BME280;45247;47.466;19.004;2022-12-17T00:19:47;99293.34;;;1.07;100.00
59443;BME280;45247;47.466;19.004;2022-12-17T00:22:32;99292.63;;;1.03;100.00
59443;BME280;45247;47.466;19.004;2022-12-17T00:25:18;99291.00;;;0.99;100.00
59443;BME280;45247;47.466;19.004;2022-12-17T00:28:08;99293.53;;;1.00;100.00
59443;BME280;45247;47.466;19.004;2022-12-17T00:30:54;99286.53;;;1.03;100.00
59443;BME280;45247;47.466;19.004;2022-12-17T00:33:42;99282.25;;;1.02;100.00
59443;BME280;45247;47.466;19.004;2022-12-17T00:36:27;99286.53;;;1.03;100.00
59443;BME280;45247;47.466;19.004;2022-12-17T00:39:13;99270.22;;;0.99;100.00
59443;BME280;45247;47.466;19.004;2022-12-17T00:41:58;99269.16;;;1.05;100.00
59443;BME280;45247;47.466;19.004;2022-12-17T00:44:44;99266.34;;;1.12;100.00
59443;BME280;45247;47.466;19.004;2022-12-17T00:47:29;99263.03;;;1.07;100.00
59443;BME280;45247;47.466;19.004;2022-12-17T00:50:16;99286.38;;;1.09;100.00
59443;BME280;45247;47.466;19.004;2022-12-17T00:53:07;99294.59;;;1.23;100.00
59443;BME280;45247;47.466;19.004;2022-12-17T00:55:53;99303.38;;;1.19;100.00
59443;BME280;45247;47.466;19.004;2022-12-17T00:58:38;99313.13;;;1.12;100.00
59443;BME280;45247;47.466;19.004;2022-12-17T01:01:24;99329.84;;;1.04;100.00
59443;BME280;45247;47.466;19.004;2022-12-17T01:04:09;99320.56;;;0.95;100.00
59443;BME280;45247;47.466;19.004;2022-12-17T01:06:57;99370.16;;;0.87;100.00
59443;BME280;45247;47.466;19.004;2022-12-17T01:09:42;99373.78;;;0.82;100.00
59443;BME280;45247;47.466;19.004;2022-12-17T01:12:28;99384.25;;;0.79;100.00
59443;BME280;45247;47.466;19.004;2022-12-17T01:15:14;99389.47;;;0.77;100.00
59443;BME280;45247;47.466;19.004;2022-12-17T01:17:59;99388.56;;;0.80;100.00
59443;BME280;45247;47.466;19.004;2022-12-17T01:20:47;99385.91;;;0.81;100.00
59443;BME280;45247;47.466;19.004;2022-12-17T01:23:34;99404.53;;;0.66;100.00
59443;BME280;45247;47.466;19.004;2022-12-17T01:26:21;99413.00;;;0.72;100.00
59443;BME280;45247;47.466;19.004;2022-12-17T01:29:07;99414.59;;;0.77;100.00
59443;BME280;45247;47.466;19.004;2022-12-17T01:31:52;99414.66;;;0.75;100.00
59443;BME280;45247;47.466;19.004;2022-12-17T01:34:38;99420.66;;;0.77;100.00
59443;BME280;45247;47.466;19.004;2022-12-17T01:37:23;99424.25;;;0.73;100.00
59443;BME280;45247;47.466;19.004;2022-12-17T01:40:10;99413.88;;;0.73;100.00
59443;BME280;45247;47.466;19.004;2022-12-17T01:42:56;99421.59;;;0.74;100.00
59443;BME280;45247;47.466;19.004;2022-12-17T01:45:43;99412.38;;;0.63;100.00
59443;BME280;45247;47.466;19.004;2022-12-17T01:48:32;99421.00;;;0.65;100.00
59443;BME280;45247;47.466;19.004;2022-12-17T01:51:18;99421.41;;;0.49;100.00
59443;BME280;45247;47.466;19.004;2022-12-17T01:54:04;99417.03;;;0.52;100.00
59443;BME280;45247;47.466;19.004;2022-12-17T01:56:55;99412.97;;;0.41;100.00
59443;BME280;45247;47.466;19.004;2022-12-17T01:59:43;99427.69;;;0.41;100.00
59443;BME280;45247;47.466;19.004;2022-12-17T02:02:30;99430.34;;;0.39;100.00
59443;BME280;45247;47.466;19.004;2022-12-17T02:05:17;99442.50;;;0.37;100.00
59443;BME280;45247;47.466;19.004;2022-12-17T02:08:13;99428.59;;;0.38;100.00
59443;BME280;45247;47.466;19.004;2022-12-17T02:11:12;99435.53;;;0.39;100.00
59443;BME280;45247;47.466;19.004;2022-12-17T02:14:06;99432.84;;;0.42;100.00
59443;BME280;45247;47.466;19.004;2022-12-17T02:16:58;99432.09;;;0.37;100.00
59443;BME280;45247;47.466;19.004;2022-12-17T02:20:11;99423.41;;;0.38;100.00
59443;BME280;45247;47.466;19.004;2022-12-17T02:23:05;99425.22;;;0.36;100.00
59443;BME280;45247;47.466;19.004;2022-12-17T02:25:56;99407.84;;;0.38;100.00
59443;BME280;45247;47.466;19.004;2022-12-17T02:28:47;99409.34;;;0.47;100.00
59443;BME280;45247;47.466;19.004;2022-12-17T02:31:36;99405.03;;;0.46;100.00
59443;BME280;45247;47.466;19.004;2022-12-17T02:34:23;99409.25;;;0.52;100.00
59443;BME280;45247;47.466;19.004;2022-12-17T02:37:09;99406.66;;;0.52;100.00
59443;BME280;45247;47.466;19.004;2022-12-17T02:39:54;99419.53;;;0.55;100.00
59443;BME280;45247;47.466;19.004;2022-12-17T02:42:41;99430.81;;;0.54;100.00
59443;BME280;45247;47.466;19.004;2022-12-17T02:45:28;99423.81;;;0.56;100.00
59443;BME280;45247;47.466;19.004;2022-12-17T02:48:15;99429.78;;;0.61;100.00
59443;BME280;45247;47.466;19.004;2022-12-17T02:51:00;99435.75;;;0.64;100.00
59443;BME280;45247;47.466;19.004;2022-12-17T02:53:51;99449.66;;;0.62;100.00
59443;BME280;45247;47.466;19.004;2022-12-17T02:56:38;99450.69;;;0.56;100.00
59443;BME280;45247;47.466;19.004;2022-12-17T02:59:23;99453.34;;;0.53;100.00
59443;BME280;45247;47.466;19.004;2022-12-17T03:02:10;99465.34;;;0.57;100.00
59443;BME280;45247;47.466;19.004;2022-12-17T03:04:56;99465.63;;;0.46;100.00
59443;BME280;45247;47.466;19.004;2022-12-17T03:08:01;99476.75;;;0.52;100.00
59443;BME280;45247;47.466;19.004;2022-12-17T03:10:47;99482.94;;;0.47;100.00
59443;BME280;45247;47.466;19.004;2022-12-17T03:13:32;99494.09;;;0.49;100.00
59443;BME280;45247;47.466;19.004;2022-12-17T03:16:18;99483.66;;;0.51;100.00
59443;BME280;45247;47.466;19.004;2022-12-17T03:19:05;99487.22;;;0.48;100.00
59443;BME280;45247;47.466;19.004;2022-12-17T03:21:51;99430.72;;;0.24;100.00
59443;BME280;45247;47.466;19.004;2022-12-17T03:24:37;99474.31;;;0.45;100.00
59443;BME280;45247;47.466;19.004;2022-12-17T03:27:22;99481.28;;;0.43;100.00
59443;BME280;45247;47.466;19.004;2022-12-17T03:30:09;99479.81;;;0.33;100.00
59443;BME280;45247;47.466;19.004;2022-12-17T03:33:01;99485.03;;;0.32;100.00
59443;BME280;45247;47.466;19.004;2022-12-17T03:35:51;99487.97;;;0.18;100.00
59443;BME280;45247;47.466;19.004;2022-12-17T03:38:36;99490.03;;;0.04;100.00
59443;BME280;45247;47.466;19.004;2022-12-17T03:41:22;99485.78;;;0.01;100.00
59443;BME280;45247;47.466;19.004;2022-12-17T03:44:07;99493.72;;;-0.07;100.00
59443;BME280;45247;47.466;19.004;2022-12-17T03:46:53;99485.59;;;-0.30;100.00
59443;BME280;45247;47.466;19.004;2022-12-17T03:49:38;99507.38;;;-0.39;100.00
59443;BME280;45247;47.466;19.004;2022-12-17T03:52:25;99502.69;;;-0.62;100.00
59443;BME280;45247;47.466;19.004;2022-12-17T03:55:11;99502.50;;;-0.53;100.00
59443;BME280;45247;47.466;19.004;2022-12-17T03:57:56;99499.22;;;-0.61;100.00
59443;BME280;45247;47.466;19.004;2022-12-17T04:00:42;99516.56;;;-0.64;100.00
59443;BME280;45247;47.466;19.004;2022-12-17T04:03:28;99520.88;;;-0.65;100.00
59443;BME280;45247;47.466;19.004;2022-12-17T04:06:13;99510.78;;;-0.77;100.00
59443;BME280;45247;47.466;19.004;2022-12-17T04:09:00;99509.81;;;-0.71;100.00
59443;BME280;45247;47.466;19.004;2022-12-17T04:11:46;99517.53;;;-0.70;100.00
59443;BME280;45247;47.466;19.004;2022-12-17T04:14:31;99508.13;;;-0.74;100.00
59443;BME280;45247;47.466;19.004;2022-12-17T04:17:19;99509.91;;;-0.76;100.00
59443;BME280;45247;47.466;19.004;2022-12-17T04:20:05;99491.69;;;-0.73;100.00
59443;BME280;45247;47.466;19.004;2022-12-17T04:22:51;99499.72;;;-0.85;100.00
59443;BME280;45247;47.466;19.004;2022-12-17T04:25:38;99500.72;;;-0.92;100.00
59443;BME280;45247;47.466;19.004;2022-12-17T04:28:24;99501.78;;;-1.04;100.00
59443;BME280;45247;47.466;19.004;2022-12-17T04:31:09;99502.63;;;-1.04;100.00
59443;BME280;45247;47.466;19.004;2022-12-17T04:33:55;99517.38;;;-1.06;100.00
59443;BME280;45247;47.466;19.004;2022-12-17T04:36:41;99532.19;;;-1.14;100.00
59443;BME280;45247;47.466;19.004;2022-12-17T04:39:25;99545.16;;;-1.14;100.00
59443;BME280;45247;47.466;19.004;2022-12-17T04:42:12;99545.09;;;-1.11;100.00
59443;BME280;45247;47.466;19.004;2022-12-17T04:44:58;99547.63;;;-1.08;100.00
59443;BME280;45247;47.466;19.004;2022-12-17T04:47:44;99548.47;;;-1.06;100.00
59443;BME280;45247;47.466;19.004;2022-12-17T04:50:29;99545.75;;;-0.99;100.00
59443;BME280;45247;47.466;19.004;2022-12-17T04:53:14;99569.91;;;-0.99;100.00
59443;BME280;45247;47.466;19.004;2022-12-17T04:56:01;99572.50;;;-0.97;100.00
59443;BME280;45247;47.466;19.004;2022-12-17T04:58:48;99561.38;;;-1.03;100.00
59443;BME280;45247;47.466;19.004;2022-12-17T05:01:33;99573.06;;;-1.31;100.00
59443;BME280;45247;47.466;19.004;2022-12-17T05:04:19;99556.84;;;-1.42;100.00
59443;BME280;45247;47.466;19.004;2022-12-17T05:07:04;99573.31;;;-1.46;100.00
59443;BME280;45247;47.466;19.004;2022-12-17T05:09:50;99580.41;;;-1.58;100.00
59443;BME280;45247;47.466;19.004;2022-12-17T05:12:35;99568.31;;;-1.59;100.00
59443;BME280;45247;47.466;19.004;2022-12-17T05:15:22;99567.38;;;-1.55;100.00
59443;BME280;45247;47.466;19.004;2022-12-17T05:18:10;99588.91;;;-1.49;100.00
59443;BME280;45247;47.466;19.004;2022-12-17T05:20:56;99594.91;;;-1.47;100.00
59443;BME280;45247;47.466;19.004;2022-12-17T05:23:41;99595.00;;;-1.55;100.00
59443;BME280;45247;47.466;19.004;2022-12-17T05:26:28;99588.94;;;-1.53;100.00
59443;BME280;45247;47.466;19.004;2022-12-17T05:29:14;99597.59;;;-1.55;100.00
59443;BME280;45247;47.466;19.004;2022-12-17T05:32:12;99594.09;;;-1.51;100.00
59443;BME280;45247;47.466;19.004;2022-12-17T05:34:57;99601.16;;;-1.61;100.00
59443;BME280;45247;47.466;19.004;2022-12-17T05:37:43;99626.13;;;-1.60;100.00
59443;BME280;45247;47.466;19.004;2022-12-17T05:40:28;99633.09;;;-1.63;100.00
59443;BME280;45247;47.466;19.004;2022-12-17T05:43:14;99627.06;;;-1.64;100.00
59443;BME280;45247;47.466;19.004;2022-12-17T05:46:00;99631.34;;;-1.63;100.00
59443;BME280;45247;47.466;19.004;2022-12-17T05:48:47;99655.59;;;-1.67;100.00
59443;BME280;45247;47.466;19.004;2022-12-17T05:51:33;99659.94;;;-1.70;100.00
59443;BME280;45247;47.466;19.004;2022-12-17T05:54:18;99652.16;;;-1.69;100.00
59443;BME280;45247;47.466;19.004;2022-12-17T05:57:04;99650.59;;;-1.82;100.00
59443;BME280;45247;47.466;19.004;2022-12-17T05:59:49;99656.59;;;-1.80;100.00
59443;BME280;45247;47.466;19.004;2022-12-17T06:02:31;99664.38;;;-1.80;100.00
59443;BME280;45247;47.466;19.004;2022-12-17T06:05:18;99678.16;;;-1.78;100.00
59443;BME280;45247;47.466;19.004;2022-12-17T06:08:05;99678.09;;;-1.73;100.00
59443;BME280;45247;47.466;19.004;2022-12-17T06:10:50;99682.38;;;-1.72;100.00
59443;BME280;45247;47.466;19.004;2022-12-17T06:13:36;99679.03;;;-1.81;100.00
59443;BME280;45247;47.466;19.004;2022-12-17T06:16:22;99684.28;;;-1.85;100.00
59443;BME280;45247;47.466;19.004;2022-12-17T06:19:07;99691.25;;;-1.90;100.00
59443;BME280;45247;47.466;19.004;2022-12-17T06:21:54;99705.84;;;-1.86;100.00
59443;BME280;45247;47.466;19.004;2022-12-17T06:24:40;99719.56;;;-1.78;100.00
59443;BME280;45247;47.466;19.004;2022-12-17T06:27:26;99724.69;;;-1.75;100.00
59443;BME280;45247;47.466;19.004;2022-12-17T06:30:11;99728.19;;;-1.79;100.00
59443;BME280;45247;47.466;19.004;2022-12-17T06:33:04;99715.25;;;-1.79;100.00
59443;BME280;45247;47.466;19.004;2022-12-17T06:35:51;99711.75;;;-1.77;100.00
59443;BME280;45247;47.466;19.004;2022-12-17T06:38:48;99721.22;;;-1.74;100.00
59443;BME280;45247;47.466;19.004;2022-12-17T06:41:33;99728.34;;;-1.91;100.00
59443;BME280;45247;47.466;19.004;2022-12-17T06:44:29;99723.97;;;-1.86;100.00
59443;BME280;45247;47.466;19.004;2022-12-17T06:47:15;99727.44;;;-1.89;100.00
59443;BME280;45247;47.466;19.004;2022-12-17T06:50:00;99736.88;;;-1.83;100.00
59443;BME280;45247;47.466;19.004;2022-12-17T06:52:45;99733.38;;;-1.79;100.00
59443;BME280;45247;47.466;19.004;2022-12-17T06:55:32;99744.53;;;-1.75;100.00
59443;BME280;45247;47.466;19.004;2022-12-17T06:58:18;99737.59;;;-1.70;100.00
59443;BME280;45247;47.466;19.004;2022-12-17T07:01:04;99735.97;;;-1.79;100.00
59443;BME280;45247;47.466;19.004;2022-12-17T07:03:49;99741.06;;;-1.76;100.00
59443;BME280;45247;47.466;19.004;2022-12-17T07:06:35;99746.25;;;-1.76;100.00
59443;BME280;45247;47.466;19.004;2022-12-17T07:09:20;99742.81;;;-1.75;100.00
59443;BME280;45247;47.466;19.004;2022-12-17T07:12:07;99767.84;;;-1.75;100.00
59443;BME280;45247;47.466;19.004;2022-12-17T07:14:53;99751.44;;;-1.76;100.00
59443;BME280;45247;47.466;19.004;2022-12-17T07:17:39;99756.53;;;-1.71;100.00
59443;BME280;45247;47.466;19.004;2022-12-17T07:20:25;99754.78;;;-1.68;100.00
59443;BME280;45247;47.466;19.004;2022-12-17T07:23:11;99768.56;;;-1.67;100.00
59443;BME280;45247;47.466;19.004;2022-12-17T07:25:56;99778.88;;;-1.63;100.00
59443;BME280;45247;47.466;19.004;2022-12-17T07:28:43;99783.19;;;-1.63;100.00
59443;BME280;45247;47.466;19.004;2022-12-17T07:31:29;99778.97;;;-1.72;100.00
59443;BME280;45247;47.466;19.004;2022-12-17T07:34:15;99814.19;;;-1.59;100.00
59443;BME280;45247;47.466;19.004;2022-12-17T07:37:00;99796.84;;;-1.51;100.00
59443;BME280;45247;47.466;19.004;2022-12-17T07:39:46;99814.75;;;-1.34;100.00
59443;BME280;45247;47.466;19.004;2022-12-17T07:42:31;99824.22;;;-1.31;100.00
59443;BME280;45247;47.466;19.004;2022-12-17T07:45:18;99812.16;;;-1.32;100.00
59443;BME280;45247;47.466;19.004;2022-12-17T07:48:04;99833.56;;;-1.18;100.00
59443;BME280;45247;47.466;19.004;2022-12-17T07:50:50;99827.41;;;-1.09;100.00
59443;BME280;45247;47.466;19.004;2022-12-17T07:53:36;99824.09;;;-1.19;100.00
59443;BME280;45247;47.466;19.004;2022-12-17T07:56:22;99837.78;;;-1.11;100.00
59443;BME280;45247;47.466;19.004;2022-12-17T07:59:07;99815.41;;;-1.15;100.00
59443;BME280;45247;47.466;19.004;2022-12-17T08:01:54;99834.19;;;-1.01;100.00
59443;BME280;45247;47.466;19.004;2022-12-17T08:04:40;99841.34;;;-1.21;100.00
59443;BME280;45247;47.466;19.004;2022-12-17T08:07:25;99837.09;;;-1.23;100.00
59443;BME280;45247;47.466;19.004;2022-12-17T08:10:11;99839.56;;;-1.16;100.00
59443;BME280;45247;47.466;19.004;2022-12-17T08:12:58;99853.28;;;-1.08;100.00
59443;BME280;45247;47.466;19.004;2022-12-17T08:15:44;99846.50;;;-1.18;100.00
59443;BME280;45247;47.466;19.004;2022-12-17T08:18:32;99855.16;;;-1.19;100.00
59443;BME280;45247;47.466;19.004;2022-12-17T08:21:18;99859.31;;;-1.06;100.00
59443;BME280;45247;47.466;19.004;2022-12-17T08:24:04;99868.59;;;-0.89;100.00
59443;BME280;45247;47.466;19.004;2022-12-17T08:26:50;99874.44;;;-0.75;100.00
59443;BME280;45247;47.466;19.004;2022-12-17T08:29:35;99877.81;;;-0.68;100.00
59443;BME280;45247;47.466;19.004;2022-12-17T08:32:22;99893.91;;;-0.48;100.00
59443;BME280;45247;47.466;19.004;2022-12-17T08:35:09;99885.44;;;-0.61;100.00
59443;BME280;45247;47.466;19.004;2022-12-17T08:38:00;99882.88;;;-0.59;100.00
59443;BME280;45247;47.466;19.004;2022-12-17T08:40:46;99886.16;;;-0.49;100.00
59443;BME280;45247;47.466;19.004;2022-12-17T08:43:31;99886.91;;;-0.41;100.00
59443;BME280;45247;47.466;19.004;2022-12-17T08:46:17;99899.09;;;-0.48;100.00
59443;BME280;45247;47.466;19.004;2022-12-17T08:49:02;99903.44;;;-0.47;100.00
59443;BME280;45247;47.466;19.004;2022-12-17T08:51:49;99902.19;;;-0.23;100.00
59443;BME280;45247;47.466;19.004;2022-12-17T08:54:35;99908.41;;;-0.35;100.00
59443;BME280;45247;47.466;19.004;2022-12-17T08:57:21;99918.75;;;-0.32;100.00
59443;BME280;45247;47.466;19.004;2022-12-17T09:00:07;99923.13;;;-0.35;100.00
59443;BME280;45247;47.466;19.004;2022-12-17T09:02:56;99902.19;;;-0.23;100.00
59443;BME280;45247;47.466;19.004;2022-12-17T09:05:42;99911.84;;;-0.33;100.00
59443;BME280;45247;47.466;19.004;2022-12-17T09:08:29;99923.25;;;-0.44;100.00
59443;BME280;45247;47.466;19.004;2022-12-17T09:11:14;99913.16;;;-0.63;100.00
59443;BME280;45247;47.466;19.004;2022-12-17T09:14:00;99931.19;;;-0.55;100.00
59443;BME280;45247;47.466;19.004;2022-12-17T09:16:45;99921.81;;;-0.64;100.00
59443;BME280;45247;47.466;19.004;2022-12-17T09:19:31;99925.78;;;-0.40;100.00
59443;BME280;45247;47.466;19.004;2022-12-17T09:22:17;99928.09;;;-0.20;100.00
59443;BME280;45247;47.466;19.004;2022-12-17T09:25:05;99924.75;;;-0.28;100.00
59443;BME280;45247;47.466;19.004;2022-12-17T09:27:50;99924.63;;;-0.22;100.00
59443;BME280;45247;47.466;19.004;2022-12-17T09:30:36;99939.28;;;-0.16;100.00
59443;BME280;45247;47.466;19.004;2022-12-17T09:33:18;99935.66;;;-0.06;100.00
59443;BME280;45247;47.466;19.004;2022-12-17T09:36:06;99934.59;;;0.06;100.00
59443;BME280;45247;47.466;19.004;2022-12-17T09:38:57;99933.69;;;0.08;100.00
59443;BME280;45247;47.466;19.004;2022-12-17T09:41:57;99917.25;;;0.08;100.00
59443;BME280;45247;47.466;19.004;2022-12-17T09:44:50;99936.81;;;0.29;100.00
59443;BME280;45247;47.466;19.004;2022-12-17T09:47:58;99942.03;;;0.27;100.00
59443;BME280;45247;47.466;19.004;2022-12-17T09:50:51;99953.06;;;0.38;100.00
59443;BME280;45247;47.466;19.004;2022-12-17T09:53:46;99941.38;;;0.13;100.00
59443;BME280;45247;47.466;19.004;2022-12-17T09:56:37;99940.81;;;-0.05;100.00
59443;BME280;45247;47.466;19.004;2022-12-17T09:59:27;99953.84;;;-0.08;100.00
59443;BME280;45247;47.466;19.004;2022-12-17T10:02:15;99959.97;;;-0.12;100.00
59443;BME280;45247;47.466;19.004;2022-12-17T10:05:03;99955.91;;;-0.31;100.00
59443;BME280;45247;47.466;19.004;2022-12-17T10:07:51;99973.25;;;-0.33;100.00
59443;BME280;45247;47.466;19.004;2022-12-17T10:10:42;99987.88;;;-0.31;100.00
59443;BME280;45247;47.466;19.004;2022-12-17T10:13:28;99991.25;;;-0.24;100.00
59443;BME280;45247;47.466;19.004;2022-12-17T10:16:24;100008.00;;;-0.48;100.00
59443;BME280;45247;47.466;19.004;2022-12-17T10:19:15;99997.69;;;-0.53;100.00
59443;BME280;45247;47.466;19.004;2022-12-17T10:22:06;100014.94;;;-0.48;100.00
59443;BME280;45247;47.466;19.004;2022-12-17T10:24:52;100013.88;;;-0.35;100.00
59443;BME280;45247;47.466;19.004;2022-12-17T10:27:37;100030.03;;;-0.15;100.00
59443;BME280;45247;47.466;19.004;2022-12-17T10:30:30;100018.00;;;-0.19;100.00
59443;BME280;45247;47.466;19.004;2022-12-17T10:33:19;100022.88;;;0.03;100.00
59443;BME280;45247;47.466;19.004;2022-12-17T10:36:19;100019.25;;;0.13;100.00
59443;BME280;45247;47.466;19.004;2022-12-17T10:39:10;100027.66;;;0.30;100.00
59443;BME280;45247;47.466;19.004;2022-12-17T10:41:58;100048.81;;;0.03;100.00
59443;BME280;45247;47.466;19.004;2022-12-17T10:44:58;100042.69;;;0.08;100.00
59443;BME280;45247;47.466;19.004;2022-12-17T10:47:55;100061.66;;;0.12;100.00
59443;BME280;45247;47.466;19.004;2022-12-17T10:50:43;100066.56;;;0.32;100.00
59443;BME280;45247;47.466;19.004;2022-12-17T10:53:29;100062.84;;;0.49;100.00
59443;BME280;45247;47.466;19.004;2022-12-17T10:56:21;100066.94;;;0.63;100.00
59443;BME280;45247;47.466;19.004;2022-12-17T10:59:10;100068.19;;;0.91;100.00
59443;BME280;45247;47.466;19.004;2022-12-17T11:01:56;100095.72;;;1.02;100.00
59443;BME280;45247;47.466;19.004;2022-12-17T11:04:50;100100.25;;;0.92;100.00
59443;BME280;45247;47.466;19.004;2022-12-17T11:07:40;100112.50;;;0.84;100.00
59443;BME280;45247;47.466;19.004;2022-12-17T11:10:33;100113.47;;;0.78;100.00
59443;BME280;45247;47.466;19.004;2022-12-17T11:13:36;100117.00;;;0.74;100.00
59443;BME280;45247;47.466;19.004;2022-12-17T11:16:26;100127.63;;;1.11;100.00
59443;BME280;45247;47.466;19.004;2022-12-17T11:19:25;100132.06;;;1.05;100.00
59443;BME280;45247;47.466;19.004;2022-12-17T11:22:21;100135.50;;;1.07;100.00
59443;BME280;45247;47.466;19.004;2022-12-17T11:25:23;100131.88;;;1.15;100.00
59443;BME280;45247;47.466;19.004;2022-12-17T11:28:16;100123.03;;;1.25;100.00
59443;BME280;45247;47.466;19.004;2022-12-17T11:31:14;100131.53;;;1.35;100.00
59443;BME280;45247;47.466;19.004;2022-12-17T11:34:10;100127.44;;;1.22;100.00
59443;BME280;45247;47.466;19.004;2022-12-17T11:37:03;100124.13;;;1.14;100.00
59443;BME280;45247;47.466;19.004;2022-12-17T11:39:57;100136.56;;;1.44;100.00
59443;BME280;45247;47.466;19.004;2022-12-17T11:42:53;100149.97;;;1.69;100.00
59443;BME280;45247;47.466;19.004;2022-12-17T11:45:57;100153.72;;;1.05;100.00
59443;BME280;45247;47.466;19.004;2022-12-17T11:48:47;100167.41;;;0.62;100.00
59443;BME280;45247;47.466;19.004;2022-12-17T11:51:40;100161.31;;;0.02;100.00
59443;BME280;45247;47.466;19.004;2022-12-17T11:54:38;100167.19;;;0.14;100.00
59443;BME280;45247;47.466;19.004;2022-12-17T11:57:34;100186.88;;;0.32;100.00
59443;BME280;45247;47.466;19.004;2022-12-17T12:00:26;100179.84;;;0.40;100.00
59443;BME280;45247;47.466;19.004;2022-12-17T12:03:23;100184.00;;;0.52;100.00
59443;BME280;45247;47.466;19.004;2022-12-17T12:06:18;100200.53;;;0.45;100.00
59443;BME280;45247;47.466;19.004;2022-12-17T12:09:27;100192.09;;;0.29;100.00
59443;BME280;45247;47.466;19.004;2022-12-17T12:12:23;100226.19;;;0.02;100.00
59443;BME280;45247;47.466;19.004;2022-12-17T12:15:20;100228.69;;;0.08;100.00
59443;BME280;45247;47.466;19.004;2022-12-17T12:18:17;100223.47;;;0.11;100.00
59443;BME280;45247;47.466;19.004;2022-12-17T12:21:21;100219.81;;;0.27;100.00
59443;BME280;45247;47.466;19.004;2022-12-17T12:24:20;100230.97;;;0.34;100.00
59443;BME280;45247;47.466;19.004;2022-12-17T12:27:13;100223.31;;;0.26;100.00
59443;BME280;45247;47.466;19.004;2022-12-17T12:30:12;100243.16;;;0.29;100.00
59443;BME280;45247;47.466;19.004;2022-12-17T12:33:05;100219.78;;;0.30;100.00
59443;BME280;45247;47.466;19.004;2022-12-17T12:36:01;100217.25;;;0.24;100.00
59443;BME280;45247;47.466;19.004;2022-12-17T12:38:52;100217.47;;;0.09;100.00
59443;BME280;45247;47.466;19.004;2022-12-17T12:41:44;100221.03;;;-0.03;100.00
59443;BME280;45247;47.466;19.004;2022-12-17T12:44:38;100230.47;;;0.06;100.00
59443;BME280;45247;47.466;19.004;2022-12-17T12:47:34;100240.88;;;0.03;100.00
59443;BME280;45247;47.466;19.004;2022-12-17T12:50:31;100230.50;;;-0.01;100.00
59443;BME280;45247;47.466;19.004;2022-12-17T12:53:24;100225.50;;;-0.16;100.00
59443;BME280;45247;47.466;19.004;2022-12-17T12:56:32;100228.31;;;-0.39;100.00
59443;BME280;45247;47.466;19.004;2022-12-17T12:59:24;100239.47;;;-0.29;100.00
59443;BME280;45247;47.466;19.004;2022-12-17T13:02:22;100242.78;;;-0.15;100.00
59443;BME280;45247;47.466;19.004;2022-12-17T13:05:24;100256.50;;;-0.02;100.00
59443;BME280;45247;47.466;19.004;2022-12-17T13:08:17;100257.34;;;-0.02;100.00
59443;BME280;45247;47.466;19.004;2022-12-17T13:10:48;100259.91;;;0.05;100.00
59443;BME280;45247;47.466;19.004;2022-12-17T13:13:25;100274.94;;;-0.30;100.00
59443;BME280;45247;47.466;19.004;2022-12-17T13:16:00;100282.78;;;-0.34;100.00
59443;BME280;45247;47.466;19.004;2022-12-17T13:18:33;100280.13;;;-0.30;100.00
59443;BME280;45247;47.466;19.004;2022-12-17T13:21:03;100279.16;;;-0.19;100.00
59443;BME280;45247;47.466;19.004;2022-12-17T13:23:34;100280.81;;;-0.11;100.00
59443;BME280;45247;47.466;19.004;2022-12-17T13:26:16;100280.78;;;-0.08;100.00
59443;BME280;45247;47.466;19.004;2022-12-17T13:28:59;100298.66;;;0.18;100.00
59443;BME280;45247;47.466;19.004;2022-12-17T13:31:29;100301.25;;;0.20;100.00
59443;BME280;45247;47.466;19.004;2022-12-17T13:34:11;100308.22;;;0.15;100.00
59443;BME280;45247;47.466;19.004;2022-12-17T13:36:48;100311.91;;;-0.09;100.00
59443;BME280;45247;47.466;19.004;2022-12-17T13:42:24;100340.38;;;0.02;100.00
59443;BME280;45247;47.466;19.004;2022-12-17T13:44:55;100360.34;;;-0.07;100.00
59443;BME280;45247;47.466;19.004;2022-12-17T13:47:26;100335.31;;;-0.14;100.00
59443;BME280;45247;47.466;19.004;2022-12-17T13:49:58;100345.69;;;-0.12;100.00
59443;BME280;45247;47.466;19.004;2022-12-17T13:52:46;100347.72;;;-0.53;100.00
59443;BME280;45247;47.466;19.004;2022-12-17T13:55:20;100349.47;;;-0.56;100.00
59443;BME280;45247;47.466;19.004;2022-12-17T13:57:51;100338.28;;;-0.60;100.00
59443;BME280;45247;47.466;19.004;2022-12-17T14:00:22;100345.09;;;-0.48;100.00
59443;BME280;45247;47.466;19.004;2022-12-17T14:02:51;100346.00;;;-0.52;100.00
59443;BME280;45247;47.466;19.004;2022-12-17T14:05:23;100366.78;;;-0.57;100.00
59443;BME280;45247;47.466;19.004;2022-12-17T14:07:52;100334.97;;;-0.80;100.00
59443;BME280;45247;47.466;19.004;2022-12-17T14:10:21;100360.09;;;-0.91;100.00
59443;BME280;45247;47.466;19.004;2022-12-17T14:12:50;100369.66;;;-1.06;100.00
59443;BME280;45247;47.466;19.004;2022-12-17T14:15:22;100387.75;;;-0.93;100.00
59443;BME280;45247;47.466;19.004;2022-12-17T14:17:52;100392.94;;;-0.99;100.00
59443;BME280;45247;47.466;19.004;2022-12-17T14:20:23;100380.06;;;-1.16;100.00
59443;BME280;45247;47.466;19.004;2022-12-17T14:22:53;100383.59;;;-1.31;100.00
59443;BME280;45247;47.466;19.004;2022-12-17T14:25:23;100400.00;;;-1.32;100.00